sensor_id;sensor_type;location;lat;lon;timestamp;temperature;humidity
11656;DHT22;5884;43.618;1.438;2023-04-03T04:45:46;9.00;99.90
11656;DHT22;5884;43.618;1.438;2023-04-03T04:48:14;9.00;99.90
11656;DHT22;5884;43.618;1.438;2023-04-03T04:50:41;9.00;99.90
11656;DHT22;5884;43.618;1.438;2023-04-03T04:53:08;9.00;99.90
11656;DHT22;5884;43.618;1.438;2023-04-03T04:55:36;9.00;99.90
11656;DHT22;5884;43.618;1.438;2023-04-03T04:58:03;8.90;99.90
11656;DHT22;5884;43.618;1.438;2023-04-03T05:00:30;8.90;99.90
11656;DHT22;5884;43.618;1.438;2023-04-03T05:02:59;9.00;99.90
11656;DHT22;5884;43.618;1.438;2023-04-03T05:05:26;9.00;99.90
11656;DHT22;5884;43.618;1.438;2023-04-03T05:07:53;8.90;99.90
11656;DHT22;5884;43.618;1.438;2023-04-03T05:10:21;9.00;99.90
11656;DHT22;5884;43.618;1.438;2023-04-03T05:12:48;9.00;99.90
11656;DHT22;5884;43.618;1.438;2023-04-03T05:15:15;9.00;99.90
11656;DHT22;5884;43.618;1.438;2023-04-03T05:17:43;9.00;99.90
11656;DHT22;5884;43.618;1.438;2023-04-03T05:20:12;8.90;99.90
11656;DHT22;5884;43.618;1.438;2023-04-03T05:22:39;8.90;99.90
11656;DHT22;5884;43.618;1.438;2023-04-03T05:25:07;8.90;99.90
11656;DHT22;5884;43.618;1.438;2023-04-03T05:27:35;8.90;99.90
11656;DHT22;5884;43.618;1.438;2023-04-03T05:30:03;8.80;99.90
11656;DHT22;5884;43.618;1.438;2023-04-03T05:32:31;8.90;99.90
11656;DHT22;5884;43.618;1.438;2023-04-03T05:34:59;8.90;99.90
11656;DHT22;5884;43.618;1.438;2023-04-03T05:37:28;9.00;99.90
11656;DHT22;5884;43.618;1.438;2023-04-03T05:39:55;8.90;99.90
11656;DHT22;5884;43.618;1.438;2023-04-03T05:42:22;9.00;99.90
11656;DHT22;5884;43.618;1.438;2023-04-03T05:44:50;8.90;99.90
11656;DHT22;5884;43.618;1.438;2023-04-03T05:47:17;8.90;99.90
11656;DHT22;5884;43.618;1.438;2023-04-03T05:49:45;8.90;99.90
11656;DHT22;5884;43.618;1.438;2023-04-03T05:52:22;9.00;99.90
11656;DHT22;5884;43.618;1.438;2023-04-03T05:54:51;9.00;99.90
11656;DHT22;5884;43.618;1.438;2023-04-03T05:57:19;9.00;99.90
11656;DHT22;5884;43.618;1.438;2023-04-03T05:59:46;9.00;99.90
11656;DHT22;5884;43.618;1.438;2023-04-03T06:02:17;9.00;99.90
11656;DHT22;5884;43.618;1.438;2023-04-03T06:04:45;9.00;99.90
11656;DHT22;5884;43.618;1.438;2023-04-03T06:07:14;9.00;99.90
11656;DHT22;5884;43.618;1.438;2023-04-03T06:09:43;9.00;99.90
11656;DHT22;5884;43.618;1.438;2023-04-03T06:12:12;9.00;99.90
11656;DHT22;5884;43.618;1.438;2023-04-03T06:14:40;9.00;99.90
11656;DHT22;5884;43.618;1.438;2023-04-03T06:17:08;9.00;99.90
11656;DHT22;5884;43.618;1.438;2023-04-03T06:19:36;9.00;99.90
11656;DHT22;5884;43.618;1.438;2023-04-03T06:22:03;9.10;99.90
11656;DHT22;5884;43.618;1.438;2023-04-03T06:24:31;9.10;99.90
11656;DHT22;5884;43.618;1.438;2023-04-03T06:26:58;9.10;99.90
11656;DHT22;5884;43.618;1.438;2023-04-03T06:29:27;9.10;99.90
11656;DHT22;5884;43.618;1.438;2023-04-03T06:31:54;9.10;99.90
11656;DHT22;5884;43.618;1.438;2023-04-03T06:34:22;9.10;99.90
11656;DHT22;5884;43.618;1.438;2023-04-03T06:36:49;9.10;99.90
11656;DHT22;5884;43.618;1.438;2023-04-03T06:39:19;9.20;99.90
11656;DHT22;5884;43.618;1.438;2023-04-03T06:41:47;9.20;99.90
11656;DHT22;5884;43.618;1.438;2023-04-03T06:44:15;9.20;99.90
11656;DHT22;5884;43.618;1.438;2023-04-03T06:46:44;9.20;99.90
11656;DHT22;5884;43.618;1.438;2023-04-03T06:49:12;9.10;99.90
11656;DHT22;5884;43.618;1.438;2023-04-03T06:51:40;9.20;99.90
11656;DHT22;5884;43.618;1.438;2023-04-03T06:54:07;9.20;99.90
11656;DHT22;5884;43.618;1.438;2023-04-03T06:56:35;9.20;99.90
11656;DHT22;5884;43.618;1.438;2023-04-03T06:59:02;9.30;99.90
11656;DHT22;5884;43.618;1.438;2023-04-03T07:01:30;9.30;99.90
11656;DHT22;5884;43.618;1.438;2023-04-03T07:03:59;9.30;99.90
11656;DHT22;5884;43.618;1.438;2023-04-03T07:06:26;9.30;99.90
11656;DHT22;5884;43.618;1.438;2023-04-03T07:08:54;9.30;99.90
11656;DHT22;5884;43.618;1.438;2023-04-03T07:11:21;9.40;99.90
11656;DHT22;5884;43.618;1.438;2023-04-03T07:13:49;9.40;99.90
11656;DHT22;5884;43.618;1.438;2023-04-03T07:16:17;9.40;99.90
11656;DHT22;5884;43.618;1.438;2023-04-03T07:18:45;9.40;99.90
11656;DHT22;5884;43.618;1.438;2023-04-03T07:21:14;9.60;99.90
11656;DHT22;5884;43.618;1.438;2023-04-03T07:23:41;9.50;99.90
11656;DHT22;5884;43.618;1.438;2023-04-03T07:26:08;9.60;99.90
11656;DHT22;5884;43.618;1.438;2023-04-03T07:28:36;9.60;99.90
11656;DHT22;5884;43.618;1.438;2023-04-03T07:31:07;9.60;99.90
11656;DHT22;5884;43.618;1.438;2023-04-03T07:33:39;9.60;99.90
11656;DHT22;5884;43.618;1.438;2023-04-03T07:36:08;9.60;99.90
11656;DHT22;5884;43.618;1.438;2023-04-03T07:38:37;9.60;99.90
11656;DHT22;5884;43.618;1.438;2023-04-03T07:41:05;9.70;99.90
11656;DHT22;5884;43.618;1.438;2023-04-03T07:43:32;9.70;99.90
11656;DHT22;5884;43.618;1.438;2023-04-03T07:46:00;9.80;99.90
11656;DHT22;5884;43.618;1.438;2023-04-03T07:48:28;9.90;99.90
11656;DHT22;5884;43.618;1.438;2023-04-03T07:50:59;9.90;99.90
11656;DHT22;5884;43.618;1.438;2023-04-03T07:53:27;9.90;99.90
11656;DHT22;5884;43.618;1.438;2023-04-03T07:55:56;9.90;99.90
11656;DHT22;5884;43.618;1.438;2023-04-03T07:58:25;9.90;99.90
11656;DHT22;5884;43.618;1.438;2023-04-03T08:00:52;10.00;99.90
11656;DHT22;5884;43.618;1.438;2023-04-03T08:03:20;10.00;99.90
11656;DHT22;5884;43.618;1.438;2023-04-03T08:05:49;9.90;99.90
11656;DHT22;5884;43.618;1.438;2023-04-03T08:08:18;9.90;99.90
11656;DHT22;5884;43.618;1.438;2023-04-03T08:10:48;10.00;99.90
11656;DHT22;5884;43.618;1.438;2023-04-03T08:13:18;10.10;99.90
11656;DHT22;5884;43.618;1.438;2023-04-03T08:15:45;10.20;99.90
11656;DHT22;5884;43.618;1.438;2023-04-03T08:18:13;10.20;99.90
11656;DHT22;5884;43.618;1.438;2023-04-03T08:20:41;10.20;99.90
11656;DHT22;5884;43.618;1.438;2023-04-03T08:23:08;10.40;99.90
11656;DHT22;5884;43.618;1.438;2023-04-03T08:25:37;10.50;99.90
11656;DHT22;5884;43.618;1.438;2023-04-03T08:28:05;10.60;99.90
11656;DHT22;5884;43.618;1.438;2023-04-03T08:30:34;10.80;99.90
11656;DHT22;5884;43.618;1.438;2023-04-03T08:33:01;10.80;99.90
11656;DHT22;5884;43.618;1.438;2023-04-03T08:35:29;10.80;99.90
11656;DHT22;5884;43.618;1.438;2023-04-03T08:37:56;10.80;99.90
11656;DHT22;5884;43.618;1.438;2023-04-03T08:40:24;10.70;99.90
11656;DHT22;5884;43.618;1.438;2023-04-03T08:43:00;10.80;99.90
11656;DHT22;5884;43.618;1.438;2023-04-03T08:45:43;11.10;99.90
11656;DHT22;5884;43.618;1.438;2023-04-03T08:48:16;11.20;99.90
11656;DHT22;5884;43.618;1.438;2023-04-03T08:50:49;11.40;99.90
11656;DHT22;5884;43.618;1.438;2023-04-03T08:53:21;11.70;99.90
11656;DHT22;5884;43.618;1.438;2023-04-03T08:55:53;11.70;99.90
11656;DHT22;5884;43.618;1.438;2023-04-03T08:58:23;11.60;99.90
11656;DHT22;5884;43.618;1.438;2023-04-03T09:00:57;11.70;99.90
11656;DHT22;5884;43.618;1.438;2023-04-03T09:03:29;11.90;99.90
11656;DHT22;5884;43.618;1.438;2023-04-03T09:06:01;11.80;99.90
11656;DHT22;5884;43.618;1.438;2023-04-03T09:08:32;11.80;99.90
11656;DHT22;5884;43.618;1.438;2023-04-03T09:11:09;11.70;99.90
11656;DHT22;5884;43.618;1.438;2023-04-03T09:13:47;11.80;99.90
11656;DHT22;5884;43.618;1.438;2023-04-03T09:16:31;11.90;99.90
11656;DHT22;5884;43.618;1.438;2023-04-03T09:19:13;11.90;99.90
11656;DHT22;5884;43.618;1.438;2023-04-03T09:21:45;11.70;99.90
11656;DHT22;5884;43.618;1.438;2023-04-03T09:24:15;11.90;99.90
11656;DHT22;5884;43.618;1.438;2023-04-03T09:26:46;12.10;99.90
11656;DHT22;5884;43.618;1.438;2023-04-03T09:29:19;12.10;99.90
11656;DHT22;5884;43.618;1.438;2023-04-03T09:31:50;12.20;99.90
11656;DHT22;5884;43.618;1.438;2023-04-03T09:34:22;12.10;99.90
11656;DHT22;5884;43.618;1.438;2023-04-03T09:36:53;12.10;99.90
11656;DHT22;5884;43.618;1.438;2023-04-03T09:39:24;12.00;99.90
11656;DHT22;5884;43.618;1.438;2023-04-03T09:42:01;12.00;99.90
11656;DHT22;5884;43.618;1.438;2023-04-03T09:44:31;12.20;99.90
11656;DHT22;5884;43.618;1.438;2023-04-03T09:47:18;12.20;99.90
11656;DHT22;5884;43.618;1.438;2023-04-03T09:49:46;12.40;99.90
11656;DHT22;5884;43.618;1.438;2023-04-03T09:52:22;12.70;99.90
11656;DHT22;5884;43.618;1.438;2023-04-03T09:54:50;12.60;99.90
11656;DHT22;5884;43.618;1.438;2023-04-03T09:57:18;12.40;99.90
11656;DHT22;5884;43.618;1.438;2023-04-03T09:59:56;12.60;99.90
11656;DHT22;5884;43.618;1.438;2023-04-03T10:02:36;12.90;99.90
11656;DHT22;5884;43.618;1.438;2023-04-03T10:05:05;12.90;99.90
11656;DHT22;5884;43.618;1.438;2023-04-03T10:08:07;13.30;99.90
11656;DHT22;5884;43.618;1.438;2023-04-03T10:10:37;13.60;99.90
11656;DHT22;5884;43.618;1.438;2023-04-03T10:13:06;13.50;99.90
11656;DHT22;5884;43.618;1.438;2023-04-03T10:15:39;13.50;99.90
11656;DHT22;5884;43.618;1.438;2023-04-03T10:18:22;13.30;99.90
11656;DHT22;5884;43.618;1.438;2023-04-03T10:21:03;13.50;99.90
11656;DHT22;5884;43.618;1.438;2023-04-03T10:23:37;13.30;99.90
11656;DHT22;5884;43.618;1.438;2023-04-03T10:26:16;12.90;99.90
11656;DHT22;5884;43.618;1.438;2023-04-03T10:28:54;13.10;99.90
11656;DHT22;5884;43.618;1.438;2023-04-03T10:31:31;13.30;99.90
11656;DHT22;5884;43.618;1.438;2023-04-03T10:34:06;13.30;99.90
11656;DHT22;5884;43.618;1.438;2023-04-03T10:36:40;13.30;99.90
11656;DHT22;5884;43.618;1.438;2023-04-03T10:39:20;13.50;99.90
11656;DHT22;5884;43.618;1.438;2023-04-03T10:42:03;13.70;99.90
11656;DHT22;5884;43.618;1.438;2023-04-03T10:44:41;13.60;99.90
11656;DHT22;5884;43.618;1.438;2023-04-03T10:47:19;13.50;99.90
11656;DHT22;5884;43.618;1.438;2023-04-03T10:49:55;13.60;99.90
11656;DHT22;5884;43.618;1.438;2023-04-03T10:52:30;13.90;99.90
11656;DHT22;5884;43.618;1.438;2023-04-03T10:55:09;13.40;99.90
11656;DHT22;5884;43.618;1.438;2023-04-03T10:57:46;13.20;99.90
11656;DHT22;5884;43.618;1.438;2023-04-03T11:00:17;13.50;99.90
11656;DHT22;5884;43.618;1.438;2023-04-03T11:02:51;13.90;99.90
11656;DHT22;5884;43.618;1.438;2023-04-03T11:05:28;14.20;99.90
11656;DHT22;5884;43.618;1.438;2023-04-03T11:08:02;14.10;99.90
11656;DHT22;5884;43.618;1.438;2023-04-03T11:10:37;13.70;99.90
11656;DHT22;5884;43.618;1.438;2023-04-03T11:13:11;13.40;99.90
11656;DHT22;5884;43.618;1.438;2023-04-03T11:15:41;13.70;99.90
11656;DHT22;5884;43.618;1.438;2023-04-03T11:18:12;13.70;99.90
11656;DHT22;5884;43.618;1.438;2023-04-03T11:20:46;13.60;99.90
11656;DHT22;5884;43.618;1.438;2023-04-03T11:23:21;13.50;99.90
11656;DHT22;5884;43.618;1.438;2023-04-03T11:25:55;13.50;99.90
11656;DHT22;5884;43.618;1.438;2023-04-03T11:28:28;13.40;99.90
11656;DHT22;5884;43.618;1.438;2023-04-03T11:31:05;13.30;99.90
11656;DHT22;5884;43.618;1.438;2023-04-03T11:33:44;13.30;99.90
11656;DHT22;5884;43.618;1.438;2023-04-03T11:36:22;13.50;99.90
11656;DHT22;5884;43.618;1.438;2023-04-03T11:38:53;13.70;99.90
11656;DHT22;5884;43.618;1.438;2023-04-03T11:41:26;13.70;99.90
11656;DHT22;5884;43.618;1.438;2023-04-03T11:43:58;13.80;99.90
11656;DHT22;5884;43.618;1.438;2023-04-03T11:46:49;13.80;99.90
11656;DHT22;5884;43.618;1.438;2023-04-03T11:53:11;13.60;99.90
11656;DHT22;5884;43.618;1.438;2023-04-03T11:55:56;13.50;99.90
11656;DHT22;5884;43.618;1.438;2023-04-03T11:58:26;13.80;99.90
11656;DHT22;5884;43.618;1.438;2023-04-03T12:01:03;14.00;99.90
11656;DHT22;5884;43.618;1.438;2023-04-03T12:04:06;13.90;99.90
11656;DHT22;5884;43.618;1.438;2023-04-03T12:10:17;13.70;99.90
11656;DHT22;5884;43.618;1.438;2023-04-03T12:13:00;13.70;99.90
11656;DHT22;5884;43.618;1.438;2023-04-03T12:15:49;13.80;99.90
11656;DHT22;5884;43.618;1.438;2023-04-03T12:18:55;13.90;99.90
11656;DHT22;5884;43.618;1.438;2023-04-03T12:22:04;14.30;99.90
11656;DHT22;5884;43.618;1.438;2023-04-03T12:24:36;14.10;99.90
11656;DHT22;5884;43.618;1.438;2023-04-03T12:27:32;14.10;99.90
11656;DHT22;5884;43.618;1.438;2023-04-03T12:30:16;13.90;99.90
11656;DHT22;5884;43.618;1.438;2023-04-03T12:35:57;13.60;99.90
11656;DHT22;5884;43.618;1.438;2023-04-03T12:41:37;14.10;99.90
11656;DHT22;5884;43.618;1.438;2023-04-03T12:44:30;14.10;99.90
11656;DHT22;5884;43.618;1.438;2023-04-03T12:47:24;14.10;99.90
11656;DHT22;5884;43.618;1.438;2023-04-03T12:49:54;13.90;99.90
11656;DHT22;5884;43.618;1.438;2023-04-03T12:52:33;13.80;99.90
11656;DHT22;5884;43.618;1.438;2023-04-03T12:55:12;14.10;99.90
11656;DHT22;5884;43.618;1.438;2023-04-03T12:57:41;14.30;99.90
11656;DHT22;5884;43.618;1.438;2023-04-03T13:00:31;14.40;99.90
11656;DHT22;5884;43.618;1.438;2023-04-03T13:03:01;14.20;99.90
11656;DHT22;5884;43.618;1.438;2023-04-03T13:05:29;14.00;99.90
11656;DHT22;5884;43.618;1.438;2023-04-03T13:07:59;14.10;99.90
11656;DHT22;5884;43.618;1.438;2023-04-03T13:10:29;14.20;99.90
11656;DHT22;5884;43.618;1.438;2023-04-03T13:12:59;14.30;99.90
11656;DHT22;5884;43.618;1.438;2023-04-03T13:15:43;14.30;99.90
11656;DHT22;5884;43.618;1.438;2023-04-03T13:18:29;14.60;99.90
11656;DHT22;5884;43.618;1.438;2023-04-03T13:21:02;14.50;99.90
11656;DHT22;5884;43.618;1.438;2023-04-03T13:23:32;14.60;99.90
11656;DHT22;5884;43.618;1.438;2023-04-03T13:26:03;14.20;99.90
11656;DHT22;5884;43.618;1.438;2023-04-03T13:28:32;14.30;99.90
11656;DHT22;5884;43.618;1.438;2023-04-03T13:31:06;14.60;99.90
11656;DHT22;5884;43.618;1.438;2023-04-03T13:33:36;14.60;99.90
11656;DHT22;5884;43.618;1.438;2023-04-03T13:36:06;14.60;99.90
11656;DHT22;5884;43.618;1.438;2023-04-03T13:38:35;14.60;99.90
11656;DHT22;5884;43.618;1.438;2023-04-03T13:41:05;14.40;99.90
11656;DHT22;5884;43.618;1.438;2023-04-03T13:43:51;14.20;99.90
11656;DHT22;5884;43.618;1.438;2023-04-03T13:46:26;14.00;99.90
11656;DHT22;5884;43.618;1.438;2023-04-03T13:48:56;14.10;99.90
11656;DHT22;5884;43.618;1.438;2023-04-03T13:51:25;14.40;99.90
11656;DHT22;5884;43.618;1.438;2023-04-03T13:53:56;14.60;99.90
11656;DHT22;5884;43.618;1.438;2023-04-03T13:56:29;14.70;99.90
11656;DHT22;5884;43.618;1.438;2023-04-03T13:59:03;14.70;99.90
11656;DHT22;5884;43.618;1.438;2023-04-03T14:01:40;14.80;99.90
11656;DHT22;5884;43.618;1.438;2023-04-03T14:04:18;14.80;99.90
11656;DHT22;5884;43.618;1.438;2023-04-03T14:06:47;14.40;99.90
11656;DHT22;5884;43.618;1.438;2023-04-03T14:09:17;14.30;99.90
11656;DHT22;5884;43.618;1.438;2023-04-03T14:11:47;14.10;99.90
11656;DHT22;5884;43.618;1.438;2023-04-03T14:14:18;14.20;99.90
11656;DHT22;5884;43.618;1.438;2023-04-03T14:16:51;14.30;99.90
11656;DHT22;5884;43.618;1.438;2023-04-03T14:19:22;14.20;99.90
11656;DHT22;5884;43.618;1.438;2023-04-03T14:21:51;14.10;99.90
11656;DHT22;5884;43.618;1.438;2023-04-03T14:24:19;13.90;99.90
11656;DHT22;5884;43.618;1.438;2023-04-03T14:26:48;14.00;99.90
11656;DHT22;5884;43.618;1.438;2023-04-03T14:29:16;13.90;99.90
11656;DHT22;5884;43.618;1.438;2023-04-03T14:31:45;14.00;99.90
11656;DHT22;5884;43.618;1.438;2023-04-03T14:34:15;14.00;99.90
11656;DHT22;5884;43.618;1.438;2023-04-03T14:36:44;14.10;99.90
11656;DHT22;5884;43.618;1.438;2023-04-03T14:39:17;14.10;99.90
11656;DHT22;5884;43.618;1.438;2023-04-03T14:41:45;14.20;99.90
11656;DHT22;5884;43.618;1.438;2023-04-03T14:44:13;14.30;99.90
11656;DHT22;5884;43.618;1.438;2023-04-03T14:46:43;14.30;99.90
11656;DHT22;5884;43.618;1.438;2023-04-03T14:49:16;14.20;99.90
11656;DHT22;5884;43.618;1.438;2023-04-03T14:51:46;14.20;99.90
11656;DHT22;5884;43.618;1.438;2023-04-03T14:54:17;14.10;99.90
11656;DHT22;5884;43.618;1.438;2023-04-03T14:56:50;14.30;99.90
11656;DHT22;5884;43.618;1.438;2023-04-03T14:59:18;14.40;99.90
11656;DHT22;5884;43.618;1.438;2023-04-03T15:01:47;14.60;99.90
11656;DHT22;5884;43.618;1.438;2023-04-03T15:04:16;14.60;99.90
11656;DHT22;5884;43.618;1.438;2023-04-03T15:06:46;14.60;99.90
11656;DHT22;5884;43.618;1.438;2023-04-03T15:09:20;14.70;99.90
11656;DHT22;5884;43.618;1.438;2023-04-03T15:11:48;14.60;99.90
11656;DHT22;5884;43.618;1.438;2023-04-03T15:14:16;14.60;99.90
11656;DHT22;5884;43.618;1.438;2023-04-03T15:16:43;14.70;99.90
11656;DHT22;5884;43.618;1.438;2023-04-03T15:19:11;14.70;99.90
11656;DHT22;5884;43.618;1.438;2023-04-03T15:21:40;14.80;99.90
11656;DHT22;5884;43.618;1.438;2023-04-03T15:24:08;14.60;99.90
11656;DHT22;5884;43.618;1.438;2023-04-03T15:26:36;14.70;99.90
11656;DHT22;5884;43.618;1.438;2023-04-03T15:29:04;14.50;99.90
11656;DHT22;5884;43.618;1.438;2023-04-03T15:31:32;14.40;99.90
11656;DHT22;5884;43.618;1.438;2023-04-03T15:33:59;14.40;99.90
11656;DHT22;5884;43.618;1.438;2023-04-03T15:36:27;14.50;99.90
11656;DHT22;5884;43.618;1.438;2023-04-03T15:38:55;14.40;99.90
11656;DHT22;5884;43.618;1.438;2023-04-03T15:41:22;14.40;99.90
11656;DHT22;5884;43.618;1.438;2023-04-03T15:43:50;14.50;99.90
11656;DHT22;5884;43.618;1.438;2023-04-03T15:46:17;14.60;99.90
11656;DHT22;5884;43.618;1.438;2023-04-03T15:48:44;14.40;99.90
11656;DHT22;5884;43.618;1.438;2023-04-03T15:51:11;14.40;99.90
11656;DHT22;5884;43.618;1.438;2023-04-03T15:53:39;14.40;99.90
11656;DHT22;5884;43.618;1.438;2023-04-03T15:56:07;14.20;99.90
11656;DHT22;5884;43.618;1.438;2023-04-03T15:58:35;14.30;99.90
11656;DHT22;5884;43.618;1.438;2023-04-03T16:01:02;14.10;99.90
11656;DHT22;5884;43.618;1.438;2023-04-03T16:03:30;14.10;99.90
11656;DHT22;5884;43.618;1.438;2023-04-03T16:05:57;14.00;99.90
11656;DHT22;5884;43.618;1.438;2023-04-03T16:08:24;14.00;99.90
11656;DHT22;5884;43.618;1.438;2023-04-03T16:10:52;13.90;99.90
11656;DHT22;5884;43.618;1.438;2023-04-03T16:13:20;13.80;99.90
11656;DHT22;5884;43.618;1.438;2023-04-03T16:15:48;13.80;99.90
11656;DHT22;5884;43.618;1.438;2023-04-03T16:18:15;13.90;99.90
11656;DHT22;5884;43.618;1.438;2023-04-03T16:20:44;13.90;99.90
11656;DHT22;5884;43.618;1.438;2023-04-03T16:23:12;13.80;99.90
11656;DHT22;5884;43.618;1.438;2023-04-03T16:25:39;13.70;99.90
11656;DHT22;5884;43.618;1.438;2023-04-03T16:28:11;13.70;99.90
11656;DHT22;5884;43.618;1.438;2023-04-03T16:30:41;13.70;99.90
11656;DHT22;5884;43.618;1.438;2023-04-03T16:33:09;13.70;99.90
11656;DHT22;5884;43.618;1.438;2023-04-03T16:35:37;13.60;99.90
11656;DHT22;5884;43.618;1.438;2023-04-03T16:38:05;13.70;99.90
11656;DHT22;5884;43.618;1.438;2023-04-03T16:40:32;13.90;99.90
11656;DHT22;5884;43.618;1.438;2023-04-03T16:43:00;14.10;99.90
11656;DHT22;5884;43.618;1.438;2023-04-03T16:45:28;14.20;99.90
11656;DHT22;5884;43.618;1.438;2023-04-03T16:47:57;14.20;99.90
11656;DHT22;5884;43.618;1.438;2023-04-03T16:50:24;14.10;99.90
11656;DHT22;5884;43.618;1.438;2023-04-03T16:52:51;13.90;99.90
11656;DHT22;5884;43.618;1.438;2023-04-03T16:55:18;13.90;99.90
11656;DHT22;5884;43.618;1.438;2023-04-03T16:57:46;13.90;99.90
11656;DHT22;5884;43.618;1.438;2023-04-03T17:00:14;13.80;99.90
11656;DHT22;5884;43.618;1.438;2023-04-03T17:02:42;13.70;99.90
11656;DHT22;5884;43.618;1.438;2023-04-03T17:05:10;13.60;99.90
11656;DHT22;5884;43.618;1.438;2023-04-03T17:07:37;13.50;99.90
11656;DHT22;5884;43.618;1.438;2023-04-03T17:10:06;13.50;99.90
11656;DHT22;5884;43.618;1.438;2023-04-03T17:12:34;13.60;99.90
11656;DHT22;5884;43.618;1.438;2023-04-03T17:15:01;13.50;99.90
11656;DHT22;5884;43.618;1.438;2023-04-03T17:17:29;13.50;99.90
11656;DHT22;5884;43.618;1.438;2023-04-03T17:19:57;13.50;99.90
11656;DHT22;5884;43.618;1.438;2023-04-03T17:22:27;13.50;99.90
11656;DHT22;5884;43.618;1.438;2023-04-03T17:24:55;13.40;99.90
11656;DHT22;5884;43.618;1.438;2023-04-03T17:27:22;13.30;99.90
11656;DHT22;5884;43.618;1.438;2023-04-03T17:29:50;13.20;99.90
11656;DHT22;5884;43.618;1.438;2023-04-03T17:32:17;13.20;99.90
11656;DHT22;5884;43.618;1.438;2023-04-03T17:34:45;13.10;99.90
11656;DHT22;5884;43.618;1.438;2023-04-03T17:37:13;13.10;99.90
11656;DHT22;5884;43.618;1.438;2023-04-03T17:39:41;13.10;99.90
11656;DHT22;5884;43.618;1.438;2023-04-03T17:42:08;13.00;99.90
11656;DHT22;5884;43.618;1.438;2023-04-03T17:44:36;12.90;99.90
11656;DHT22;5884;43.618;1.438;2023-04-03T17:47:03;12.90;99.90
11656;DHT22;5884;43.618;1.438;2023-04-03T17:49:30;12.70;99.90
11656;DHT22;5884;43.618;1.438;2023-04-03T17:51:58;12.60;99.90
11656;DHT22;5884;43.618;1.438;2023-04-03T17:54:25;12.50;99.90
11656;DHT22;5884;43.618;1.438;2023-04-03T17:56:54;12.50;99.90
11656;DHT22;5884;43.618;1.438;2023-04-03T17:59:21;12.40;99.90
11656;DHT22;5884;43.618;1.438;2023-04-03T18:01:48;12.30;99.90
11656;DHT22;5884;43.618;1.438;2023-04-03T18:04:17;12.20;99.90
11656;DHT22;5884;43.618;1.438;2023-04-03T18:06:46;12.20;99.90
11656;DHT22;5884;43.618;1.438;2023-04-03T18:09:17;12.20;99.90
11656;DHT22;5884;43.618;1.438;2023-04-03T18:11:48;12.10;99.90
11656;DHT22;5884;43.618;1.438;2023-04-03T18:14:19;12.00;99.90
11656;DHT22;5884;43.618;1.438;2023-04-03T18:16:49;11.90;99.90
11656;DHT22;5884;43.618;1.438;2023-04-03T18:19:16;11.80;99.90
11656;DHT22;5884;43.618;1.438;2023-04-03T18:21:43;11.80;99.90
11656;DHT22;5884;43.618;1.438;2023-04-03T18:24:14;11.80;99.90
11656;DHT22;5884;43.618;1.438;2023-04-03T18:26:43;11.70;99.90
11656;DHT22;5884;43.618;1.438;2023-04-03T18:29:12;11.60;99.90
11656;DHT22;5884;43.618;1.438;2023-04-03T18:31:45;11.70;99.90
11656;DHT22;5884;43.618;1.438;2023-04-03T18:34:14;11.60;99.90
11656;DHT22;5884;43.618;1.438;2023-04-03T18:36:42;11.50;99.90
11656;DHT22;5884;43.618;1.438;2023-04-03T18:39:09;11.40;99.90
11656;DHT22;5884;43.618;1.438;2023-04-03T18:41:37;11.40;99.90
11656;DHT22;5884;43.618;1.438;2023-04-03T18:44:06;11.30;99.90
11656;DHT22;5884;43.618;1.438;2023-04-03T18:46:35;11.30;99.90
11656;DHT22;5884;43.618;1.438;2023-04-03T18:49:04;11.20;99.90
11656;DHT22;5884;43.618;1.438;2023-04-03T18:51:32;11.20;99.90
11656;DHT22;5884;43.618;1.438;2023-04-03T18:53:59;11.10;99.90
11656;DHT22;5884;43.618;1.438;2023-04-03T18:56:27;11.10;99.90
11656;DHT22;5884;43.618;1.438;2023-04-03T18:58:54;11.10;99.90
11656;DHT22;5884;43.618;1.438;2023-04-03T19:01:21;11.10;99.90
11656;DHT22;5884;43.618;1.438;2023-04-03T19:03:49;11.00;99.90
11656;DHT22;5884;43.618;1.438;2023-04-03T19:06:17;11.10;99.90
11656;DHT22;5884;43.618;1.438;2023-04-03T19:08:45;11.00;99.90
11656;DHT22;5884;43.618;1.438;2023-04-03T19:11:12;11.10;99.90
11656;DHT22;5884;43.618;1.438;2023-04-03T19:13:39;11.10;99.90
11656;DHT22;5884;43.618;1.438;2023-04-03T19:16:07;11.00;99.90
11656;DHT22;5884;43.618;1.438;2023-04-03T19:18:34;11.00;99.90
11656;DHT22;5884;43.618;1.438;2023-04-03T19:21:02;11.00;99.90
11656;DHT22;5884;43.618;1.438;2023-04-03T19:23:30;11.00;99.90
11656;DHT22;5884;43.618;1.438;2023-04-03T19:25:58;11.00;99.90
11656;DHT22;5884;43.618;1.438;2023-04-03T19:28:26;10.90;99.90
11656;DHT22;5884;43.618;1.438;2023-04-03T19:30:54;10.90;99.90
11656;DHT22;5884;43.618;1.438;2023-04-03T19:33:22;10.80;99.90
11656;DHT22;5884;43.618;1.438;2023-04-03T19:35:50;10.80;99.90
11656;DHT22;5884;43.618;1.438;2023-04-03T19:38:17;10.80;99.90
11656;DHT22;5884;43.618;1.438;2023-04-03T19:40:46;10.80;99.90
11656;DHT22;5884;43.618;1.438;2023-04-03T19:43:15;10.70;99.90
11656;DHT22;5884;43.618;1.438;2023-04-03T19:45:43;10.70;99.90
11656;DHT22;5884;43.618;1.438;2023-04-03T19:48:11;10.70;99.90
11656;DHT22;5884;43.618;1.438;2023-04-03T19:50:39;10.70;99.90
11656;DHT22;5884;43.618;1.438;2023-04-03T19:53:06;10.60;99.90
11656;DHT22;5884;43.618;1.438;2023-04-03T19:55:35;10.60;99.90
11656;DHT22;5884;43.618;1.438;2023-04-03T19:58:03;10.60;99.90
11656;DHT22;5884;43.618;1.438;2023-04-03T20:00:31;10.50;99.90
11656;DHT22;5884;43.618;1.438;2023-04-03T20:02:59;10.50;99.90
11656;DHT22;5884;43.618;1.438;2023-04-03T20:05:26;10.50;99.90
11656;DHT22;5884;43.618;1.438;2023-04-03T20:07:53;10.50;99.90
11656;DHT22;5884;43.618;1.438;2023-04-03T20:10:22;10.40;99.90
11656;DHT22;5884;43.618;1.438;2023-04-03T20:12:49;10.40;99.90
11656;DHT22;5884;43.618;1.438;2023-04-03T20:15:18;10.30;99.90
11656;DHT22;5884;43.618;1.438;2023-04-03T20:17:46;10.40;99.90
11656;DHT22;5884;43.618;1.438;2023-04-03T20:20:13;10.40;99.90
11656;DHT22;5884;43.618;1.438;2023-04-03T20:22:41;10.40;99.90
11656;DHT22;5884;43.618;1.438;2023-04-03T20:25:10;10.40;99.90
11656;DHT22;5884;43.618;1.438;2023-04-03T20:27:39;10.30;99.90
11656;DHT22;5884;43.618;1.438;2023-04-03T20:30:10;10.30;99.90
11656;DHT22;5884;43.618;1.438;2023-04-03T20:32:39;10.30;99.90
11656;DHT22;5884;43.618;1.438;2023-04-03T20:35:07;10.30;99.90
11656;DHT22;5884;43.618;1.438;2023-04-03T20:37:34;10.20;99.90
11656;DHT22;5884;43.618;1.438;2023-04-03T20:40:08;10.30;99.90
11656;DHT22;5884;43.618;1.438;2023-04-03T20:42:36;10.30;99.90
11656;DHT22;5884;43.618;1.438;2023-04-03T20:45:04;10.30;99.90
11656;DHT22;5884;43.618;1.438;2023-04-03T20:47:32;10.20;99.90
11656;DHT22;5884;43.618;1.438;2023-04-03T20:50:01;10.20;99.90
11656;DHT22;5884;43.618;1.438;2023-04-03T20:52:29;10.20;99.90
11656;DHT22;5884;43.618;1.438;2023-04-03T20:54:56;10.10;99.90
11656;DHT22;5884;43.618;1.438;2023-04-03T20:57:23;10.10;99.90
11656;DHT22;5884;43.618;1.438;2023-04-03T20:59:51;10.10;99.90
